PWSweather.com
Personal Weather Stations
Station Observations
CANDIOTINO
Barrio Candioti Norte, Santa FeAR 3000

Barrio Candioti NorteSanta FeAR 3000

Lat: -31.632778, Lon: -60.695556

Elevation: 69

Station Type: WH-1081

http://www.eltiempoensantafe.com.ar

High Low Average
Temperature 58.3°F14.6°C 36.7°F2.6°C 47.4°F8.6°C
Dew Point 38.3°F3.5°C 29.2°F-1.6°C 33.9°F1.1°C
Winds 7.6 mph 12.2 kmh Calm Calm 3.0 mph S4.8 kmh S
Wind Gusts 15.2 mph24.5 kmh 2.2 mph3.5 kmh 8.0 mph12.9 kmh
Humidity 80% 36% 61%
Pressure 30.44 in1030.8 mb 30.30 in1026.1 mb -
Precipitation 0.00 in0.0 mm - -
Hour Temp Dew Point Humidity Winds Wind Gusts Pressure Precip Precip Rate Daily Precip Total
12:00 AM 45.0°F7.2°C 32.3°F0.2°C 61% 4.5 mph SW7.2 kmh SW 8.3 mph13.4 kmh 30.43 in1030.5 mb 0.00 in0.0 mm 0.00 in0.0 mm 0.00 in0.0 mm
12:15 AM 44.8°F7.1°C 32.2°F0.1°C 61% 4.5 mph SSW7.2 kmh SSW 9.2 mph14.8 kmh 30.43 in1030.5 mb 0.00 in0.0 mm 0.00 in0.0 mm 0.00 in0.0 mm
12:30 AM 45.0°F7.2°C 30.7°F-0.7°C 57% 3.8 mph SSW6.1 kmh SSW 12.1 mph19.5 kmh 30.44 in1030.8 mb 0.00 in0.0 mm 0.00 in0.0 mm 0.00 in0.0 mm
12:45 AM 44.4°F6.9°C 31.4°F-0.3°C 60% 4.5 mph S7.2 kmh S 12.1 mph19.5 kmh 30.43 in1030.5 mb 0.00 in0.0 mm 0.00 in0.0 mm 0.00 in0.0 mm
01:00 AM 44.1°F6.7°C 31.5°F-0.3°C 61% 4.5 mph SSW7.2 kmh SSW 9.8 mph15.8 kmh 30.44 in1030.8 mb 0.00 in0.0 mm 0.00 in0.0 mm 0.00 in0.0 mm
01:15 AM 43.7°F6.5°C 31.5°F-0.3°C 62% 5.4 mph SSW8.7 kmh SSW 9.2 mph14.8 kmh 30.44 in1030.8 mb 0.00 in0.0 mm 0.00 in0.0 mm 0.00 in0.0 mm
01:30 AM 43.5°F6.4°C 31.8°F-0.1°C 63% 6.0 mph S9.7 kmh S 10.7 mph17.2 kmh 30.44 in1030.8 mb 0.00 in0.0 mm 0.00 in0.0 mm 0.00 in0.0 mm
01:45 AM 43.2°F6.2°C 32.2°F0.1°C 65% 5.4 mph SSW8.7 kmh SSW 7.6 mph12.2 kmh 30.43 in1030.5 mb 0.00 in0.0 mm 0.00 in0.0 mm 0.00 in0.0 mm
02:00 AM 43.0°F6.1°C 32.8°F0.4°C 67% 4.5 mph S7.2 kmh S 9.2 mph14.8 kmh 30.43 in1030.5 mb 0.00 in0.0 mm 0.00 in0.0 mm 0.00 in0.0 mm
02:15 AM 42.8°F6.0°C 33.0°F0.6°C 68% 3.8 mph S6.1 kmh S 8.3 mph13.4 kmh 30.43 in1030.5 mb 0.00 in0.0 mm 0.00 in0.0 mm 0.00 in0.0 mm
02:30 AM 42.4°F5.8°C 33.4°F0.8°C 70% 4.5 mph S7.2 kmh S 9.2 mph14.8 kmh 30.43 in1030.5 mb 0.00 in0.0 mm 0.00 in0.0 mm 0.00 in0.0 mm
02:45 AM 42.1°F5.6°C 33.0°F0.6°C 70% 1.6 mph SSW2.6 kmh SSW 7.6 mph12.2 kmh 30.42 in1030.1 mb 0.00 in0.0 mm 0.00 in0.0 mm 0.00 in0.0 mm
03:00 AM 42.1°F5.6°C 33.4°F0.8°C 71% 3.1 mph S5.0 kmh S 7.6 mph12.2 kmh 30.41 in1029.8 mb 0.00 in0.0 mm 0.00 in0.0 mm 0.00 in0.0 mm
03:15 AM 41.7°F5.4°C 33.4°F0.8°C 72% 2.2 mph SW3.5 kmh SW 4.5 mph7.2 kmh 30.41 in1029.8 mb 0.00 in0.0 mm 0.00 in0.0 mm 0.00 in0.0 mm
03:30 AM 41.4°F5.2°C 33.4°F0.8°C 73% 3.1 mph SW5.0 kmh SW 8.3 mph13.4 kmh 30.41 in1029.8 mb 0.00 in0.0 mm 0.00 in0.0 mm 0.00 in0.0 mm
03:45 AM 41.2°F5.1°C 33.2°F0.7°C 73% 1.6 mph SW2.6 kmh SW 7.6 mph12.2 kmh 30.41 in1029.8 mb 0.00 in0.0 mm 0.00 in0.0 mm 0.00 in0.0 mm
04:00 AM 40.5°F4.7°C 32.8°F0.4°C 74% 1.6 mph SW2.6 kmh SW 5.4 mph8.7 kmh 30.41 in1029.8 mb 0.00 in0.0 mm 0.00 in0.0 mm 0.00 in0.0 mm
04:15 AM 39.9°F4.4°C 32.7°F0.4°C 75% 3.1 mph SW5.0 kmh SW 6.0 mph9.7 kmh 30.40 in1029.5 mb 0.00 in0.0 mm 0.00 in0.0 mm 0.00 in0.0 mm
04:30 AM 39.7°F4.3°C 32.5°F0.3°C 75% 2.2 mph SW3.5 kmh SW 5.4 mph8.7 kmh 30.40 in1029.5 mb 0.00 in0.0 mm 0.00 in0.0 mm 0.00 in0.0 mm
04:45 AM 39.6°F4.2°C 32.6°F0.3°C 76% 3.1 mph SW5.0 kmh SW 6.0 mph9.7 kmh 30.40 in1029.5 mb 0.00 in0.0 mm 0.00 in0.0 mm 0.00 in0.0 mm
05:00 AM 39.4°F4.1°C 32.8°F0.4°C 77% 2.2 mph SSW3.5 kmh SSW 4.5 mph7.2 kmh 30.40 in1029.5 mb 0.00 in0.0 mm 0.00 in0.0 mm 0.00 in0.0 mm
05:15 AM 39.6°F4.2°C 33.3°F0.7°C 78% 5.4 mph SSW8.7 kmh SSW 9.8 mph15.8 kmh 30.40 in1029.5 mb 0.00 in0.0 mm 0.00 in0.0 mm 0.00 in0.0 mm
05:30 AM 39.7°F4.3°C 33.8°F1.0°C 79% 2.2 mph SSW3.5 kmh SSW 7.6 mph12.2 kmh 30.39 in1029.1 mb 0.00 in0.0 mm 0.00 in0.0 mm 0.00 in0.0 mm
05:45 AM 39.6°F4.2°C 33.6°F0.9°C 79% 2.2 mph SW3.5 kmh SW 5.4 mph8.7 kmh 30.38 in1028.8 mb 0.00 in0.0 mm 0.00 in0.0 mm 0.00 in0.0 mm
06:00 AM 39.4°F4.1°C 33.4°F0.8°C 79% 0.7 mph SW1.1 kmh SW 6.0 mph9.7 kmh 30.39 in1029.1 mb 0.00 in0.0 mm 0.00 in0.0 mm 0.00 in0.0 mm
06:15 AM 39.0°F3.9°C 33.4°F0.8°C 80% Calm Calm 3.8 mph6.1 kmh 30.39 in1029.1 mb 0.00 in0.0 mm 0.00 in0.0 mm 0.00 in0.0 mm
06:30 AM 38.5°F3.6°C 32.9°F0.5°C 80% 1.6 mph NNW2.6 kmh NNW 3.8 mph6.1 kmh 30.39 in1029.1 mb 0.00 in0.0 mm 0.00 in0.0 mm 0.00 in0.0 mm
06:45 AM 38.3°F3.5°C 32.7°F0.4°C 80% 2.2 mph N3.5 kmh N 4.5 mph7.2 kmh 30.39 in1029.1 mb 0.00 in0.0 mm 0.00 in0.0 mm 0.00 in0.0 mm
07:00 AM 37.4°F3.0°C 31.5°F-0.3°C 79% 0.7 mph NW1.1 kmh NW 4.5 mph7.2 kmh 30.40 in1029.5 mb 0.00 in0.0 mm 0.00 in0.0 mm 0.00 in0.0 mm
07:15 AM 36.9°F2.7°C 29.7°F-1.3°C 75% 2.2 mph WSW3.5 kmh WSW 6.0 mph9.7 kmh 30.40 in1029.5 mb 0.00 in0.0 mm 0.00 in0.0 mm 0.00 in0.0 mm
07:30 AM 36.7°F2.6°C 29.2°F-1.6°C 74% 2.2 mph S3.5 kmh S 5.4 mph8.7 kmh 30.40 in1029.5 mb 0.00 in0.0 mm 0.00 in0.0 mm 0.00 in0.0 mm
07:45 AM 36.7°F2.6°C 29.2°F-1.6°C 74% 3.1 mph S5.0 kmh S 4.5 mph7.2 kmh 30.41 in1029.8 mb 0.00 in0.0 mm 0.00 in0.0 mm 0.00 in0.0 mm
08:00 AM 36.7°F2.6°C 29.2°F-1.6°C 74% 1.6 mph S2.6 kmh S 5.4 mph8.7 kmh 30.41 in1029.8 mb 0.00 in0.0 mm 0.00 in0.0 mm 0.00 in0.0 mm
08:15 AM 37.6°F3.1°C 31.0°F-0.6°C 77% 3.1 mph S5.0 kmh S 5.4 mph8.7 kmh 30.42 in1030.1 mb 0.00 in0.0 mm 0.00 in0.0 mm 0.00 in0.0 mm
08:30 AM 38.8°F3.8°C 31.6°F-0.2°C 75% 3.8 mph WSW6.1 kmh WSW 6.9 mph11.1 kmh 30.42 in1030.1 mb 0.00 in0.0 mm 0.00 in0.0 mm 0.00 in0.0 mm
08:45 AM 39.6°F4.2°C 30.2°F-1.0°C 69% 5.4 mph SW8.7 kmh SW 9.2 mph14.8 kmh 30.42 in1030.1 mb 0.00 in0.0 mm 0.00 in0.0 mm 0.00 in0.0 mm
09:00 AM 39.9°F4.4°C 30.2°F-1.0°C 68% 1.6 mph WSW2.6 kmh WSW 8.3 mph13.4 kmh 30.43 in1030.5 mb 0.00 in0.0 mm 0.00 in0.0 mm 0.00 in0.0 mm
09:15 AM 41.5°F5.3°C 31.4°F-0.3°C 67% 3.8 mph SW6.1 kmh SW 6.9 mph11.1 kmh 30.43 in1030.5 mb 0.00 in0.0 mm 0.00 in0.0 mm 0.00 in0.0 mm
09:30 AM 42.4°F5.8°C 32.3°F0.2°C 67% 3.1 mph WSW5.0 kmh WSW 7.6 mph12.2 kmh 30.43 in1030.5 mb 0.00 in0.0 mm 0.00 in0.0 mm 0.00 in0.0 mm
09:45 AM 42.8°F6.0°C 32.2°F0.1°C 66% 2.2 mph WSW3.5 kmh WSW 6.9 mph11.1 kmh 30.43 in1030.5 mb 0.00 in0.0 mm 0.00 in0.0 mm 0.00 in0.0 mm
10:00 AM 45.0°F7.2°C 33.9°F1.1°C 65% 1.6 mph WSW2.6 kmh WSW 6.9 mph11.1 kmh 30.43 in1030.5 mb 0.00 in0.0 mm 0.00 in0.0 mm 0.00 in0.0 mm
10:15 AM 45.0°F7.2°C 33.5°F0.8°C 64% 1.6 mph SW2.6 kmh SW 6.9 mph11.1 kmh 30.43 in1030.5 mb 0.00 in0.0 mm 0.00 in0.0 mm 0.00 in0.0 mm
10:30 AM 46.9°F8.3°C 36.2°F2.3°C 66% 3.1 mph SW5.0 kmh SW 6.9 mph11.1 kmh 30.43 in1030.5 mb 0.00 in0.0 mm 0.00 in0.0 mm 0.00 in0.0 mm
10:45 AM 46.9°F8.3°C 35.8°F2.1°C 65% 3.1 mph S5.0 kmh S 9.8 mph15.8 kmh 30.43 in1030.5 mb 0.00 in0.0 mm 0.00 in0.0 mm 0.00 in0.0 mm
11:00 AM 48.7°F9.3°C 37.5°F3.1°C 65% 6.9 mph S11.1 kmh S 8.3 mph13.4 kmh 30.42 in1030.1 mb 0.00 in0.0 mm 0.00 in0.0 mm 0.00 in0.0 mm
11:15 AM 50.0°F10.0°C 37.9°F3.3°C 63% 5.4 mph S8.7 kmh S 6.9 mph11.1 kmh 30.43 in1030.5 mb 0.00 in0.0 mm 0.00 in0.0 mm 0.00 in0.0 mm
11:30 AM 48.9°F9.4°C 37.3°F2.9°C 64% 3.8 mph S6.1 kmh S 9.2 mph14.8 kmh 30.42 in1030.1 mb 0.00 in0.0 mm 0.00 in0.0 mm 0.00 in0.0 mm
11:45 AM 50.7°F10.4°C 38.2°F3.4°C 62% 4.5 mph S7.2 kmh S 9.8 mph15.8 kmh 30.41 in1029.8 mb 0.00 in0.0 mm 0.00 in0.0 mm 0.00 in0.0 mm
12:00 PM 51.3°F10.7°C 38.3°F3.5°C 61% 1.6 mph SSW2.6 kmh SSW 8.3 mph13.4 kmh 30.41 in1029.8 mb 0.00 in0.0 mm 0.00 in0.0 mm 0.00 in0.0 mm
12:15 PM 53.1°F11.7°C 38.2°F3.4°C 57% 6.0 mph SSW9.7 kmh SSW 7.6 mph12.2 kmh 30.41 in1029.8 mb 0.00 in0.0 mm 0.00 in0.0 mm 0.00 in0.0 mm
12:30 PM 53.2°F11.8°C 37.0°F2.8°C 54% 3.1 mph S5.0 kmh S 9.2 mph14.8 kmh 30.40 in1029.5 mb 0.00 in0.0 mm 0.00 in0.0 mm 0.00 in0.0 mm
12:45 PM 53.2°F11.8°C 37.0°F2.8°C 54% 5.4 mph S8.7 kmh S 12.1 mph19.5 kmh 30.38 in1028.8 mb 0.00 in0.0 mm 0.00 in0.0 mm 0.00 in0.0 mm
01:00 PM 53.8°F12.1°C 36.6°F2.6°C 52% 3.8 mph SSE6.1 kmh SSE 12.1 mph19.5 kmh 30.39 in1029.1 mb 0.00 in0.0 mm 0.00 in0.0 mm 0.00 in0.0 mm
01:15 PM 54.0°F12.2°C 36.3°F2.4°C 51% 3.8 mph S6.1 kmh S 12.1 mph19.5 kmh 30.38 in1028.8 mb 0.00 in0.0 mm 0.00 in0.0 mm 0.00 in0.0 mm
01:30 PM 54.9°F12.7°C 36.6°F2.6°C 50% 3.8 mph S6.1 kmh S 9.8 mph15.8 kmh 30.38 in1028.8 mb 0.00 in0.0 mm 0.00 in0.0 mm 0.00 in0.0 mm
01:45 PM 56.7°F13.7°C 36.1°F2.3°C 46% 5.4 mph S8.7 kmh S 10.7 mph17.2 kmh 30.36 in1028.1 mb 0.00 in0.0 mm 0.00 in0.0 mm 0.00 in0.0 mm
02:00 PM 55.9°F13.3°C 35.5°F1.9°C 46% 6.0 mph SSE9.7 kmh SSE 14.5 mph23.3 kmh 30.36 in1028.1 mb 0.00 in0.0 mm 0.00 in0.0 mm 0.00 in0.0 mm
02:15 PM 55.4°F13.0°C 35.0°F1.7°C 46% 5.4 mph SSE8.7 kmh SSE 15.2 mph24.5 kmh 30.35 in1027.8 mb 0.00 in0.0 mm 0.00 in0.0 mm 0.00 in0.0 mm
02:30 PM 55.9°F13.3°C 34.9°F1.6°C 45% 6.9 mph SSE11.1 kmh SSE 14.5 mph23.3 kmh 30.34 in1027.4 mb 0.00 in0.0 mm 0.00 in0.0 mm 0.00 in0.0 mm
02:45 PM 55.9°F13.3°C 34.9°F1.6°C 45% 6.9 mph SSE11.1 kmh SSE 14.5 mph23.3 kmh 30.33 in1027.1 mb 0.00 in0.0 mm 0.00 in0.0 mm 0.00 in0.0 mm
03:00 PM 55.9°F13.3°C 34.9°F1.6°C 45% 7.6 mph SSE12.2 kmh SSE 14.5 mph23.3 kmh 30.32 in1026.8 mb 0.00 in0.0 mm 0.00 in0.0 mm 0.00 in0.0 mm
03:15 PM 57.2°F14.0°C 33.7°F0.9°C 41% 4.5 mph S7.2 kmh S 13.0 mph20.9 kmh 30.33 in1027.1 mb 0.00 in0.0 mm 0.00 in0.0 mm 0.00 in0.0 mm
03:30 PM 57.4°F14.1°C 33.9°F1.1°C 41% 5.4 mph SE8.7 kmh SE 14.5 mph23.3 kmh 30.32 in1026.8 mb 0.00 in0.0 mm 0.00 in0.0 mm 0.00 in0.0 mm
03:45 PM 57.6°F14.2°C 33.4°F0.8°C 40% 6.0 mph S9.7 kmh S 15.2 mph24.5 kmh 30.32 in1026.8 mb 0.00 in0.0 mm 0.00 in0.0 mm 0.00 in0.0 mm
04:00 PM 57.7°F14.3°C 31.7°F-0.2°C 37% 6.9 mph SE11.1 kmh SE 9.8 mph15.8 kmh 30.32 in1026.8 mb 0.00 in0.0 mm 0.00 in0.0 mm 0.00 in0.0 mm
04:15 PM 57.6°F14.2°C 33.4°F0.8°C 40% 4.5 mph SE7.2 kmh SE 9.8 mph15.8 kmh 30.32 in1026.8 mb 0.00 in0.0 mm 0.00 in0.0 mm 0.00 in0.0 mm
04:30 PM 58.3°F14.6°C 32.8°F0.4°C 38% 4.5 mph SE7.2 kmh SE 11.4 mph18.3 kmh 30.31 in1026.4 mb 0.00 in0.0 mm 0.00 in0.0 mm 0.00 in0.0 mm
04:45 PM 57.9°F14.4°C 31.1°F-0.5°C 36% 6.0 mph SE9.7 kmh SE 9.8 mph15.8 kmh 30.31 in1026.4 mb 0.00 in0.0 mm 0.00 in0.0 mm 0.00 in0.0 mm
05:00 PM 57.7°F14.3°C 33.0°F0.6°C 39% 3.8 mph SE6.1 kmh SE 10.7 mph17.2 kmh 30.31 in1026.4 mb 0.00 in0.0 mm 0.00 in0.0 mm 0.00 in0.0 mm
05:15 PM 57.7°F14.3°C 32.3°F0.2°C 38% 3.1 mph SSE5.0 kmh SSE 9.8 mph15.8 kmh 30.30 in1026.1 mb 0.00 in0.0 mm 0.00 in0.0 mm 0.00 in0.0 mm
05:30 PM 57.6°F14.2°C 33.4°F0.8°C 40% 4.5 mph ESE7.2 kmh ESE 9.2 mph14.8 kmh 30.30 in1026.1 mb 0.00 in0.0 mm 0.00 in0.0 mm 0.00 in0.0 mm
05:45 PM 57.4°F14.1°C 33.3°F0.7°C 40% 4.5 mph SE7.2 kmh SE 8.3 mph13.4 kmh 30.31 in1026.4 mb 0.00 in0.0 mm 0.00 in0.0 mm 0.00 in0.0 mm
06:00 PM 57.7°F14.3°C 34.2°F1.2°C 41% 4.5 mph SE7.2 kmh SE 6.9 mph11.1 kmh 30.30 in1026.1 mb 0.00 in0.0 mm 0.00 in0.0 mm 0.00 in0.0 mm
06:15 PM 55.2°F12.9°C 33.1°F0.6°C 43% 3.8 mph SSE6.1 kmh SSE 9.2 mph14.8 kmh 30.30 in1026.1 mb 0.00 in0.0 mm 0.00 in0.0 mm 0.00 in0.0 mm
06:30 PM 54.0°F12.2°C 32.0°F0.0°C 43% 3.8 mph SE6.1 kmh SE 7.6 mph12.2 kmh 30.30 in1026.1 mb 0.00 in0.0 mm 0.00 in0.0 mm 0.00 in0.0 mm
06:45 PM 52.0°F11.1°C 32.4°F0.2°C 47% 1.6 mph SSE2.6 kmh SSE 5.4 mph8.7 kmh 30.31 in1026.4 mb 0.00 in0.0 mm 0.00 in0.0 mm 0.00 in0.0 mm
07:00 PM 51.4°F10.8°C 33.9°F1.1°C 51% 4.5 mph SSE7.2 kmh SSE 5.4 mph8.7 kmh 30.32 in1026.8 mb 0.00 in0.0 mm 0.00 in0.0 mm 0.00 in0.0 mm
07:15 PM 51.1°F10.6°C 35.0°F1.7°C 54% 3.1 mph SE5.0 kmh SE 5.4 mph8.7 kmh 30.32 in1026.8 mb 0.00 in0.0 mm 0.00 in0.0 mm 0.00 in0.0 mm
07:30 PM 50.7°F10.4°C 35.2°F1.8°C 55% 2.2 mph SE3.5 kmh SE 4.5 mph7.2 kmh 30.32 in1026.8 mb 0.00 in0.0 mm 0.00 in0.0 mm 0.00 in0.0 mm
07:45 PM 50.2°F10.1°C 35.5°F1.9°C 57% 1.6 mph SE2.6 kmh SE 5.4 mph8.7 kmh 30.32 in1026.8 mb 0.00 in0.0 mm 0.00 in0.0 mm 0.00 in0.0 mm
08:00 PM 50.0°F10.0°C 34.5°F1.4°C 55% 3.1 mph SE5.0 kmh SE 5.4 mph8.7 kmh 30.32 in1026.8 mb 0.00 in0.0 mm 0.00 in0.0 mm 0.00 in0.0 mm
08:15 PM 50.0°F10.0°C 34.5°F1.4°C 55% 3.1 mph ESE5.0 kmh ESE 6.0 mph9.7 kmh 30.32 in1026.8 mb 0.00 in0.0 mm 0.00 in0.0 mm 0.00 in0.0 mm
08:30 PM 49.5°F9.7°C 35.3°F1.8°C 58% 3.1 mph SE5.0 kmh SE 5.4 mph8.7 kmh 30.33 in1027.1 mb 0.00 in0.0 mm 0.00 in0.0 mm 0.00 in0.0 mm
08:45 PM 49.1°F9.5°C 35.4°F1.9°C 59% 1.6 mph SE2.6 kmh SE 4.5 mph7.2 kmh 30.32 in1026.8 mb 0.00 in0.0 mm 0.00 in0.0 mm 0.00 in0.0 mm
09:00 PM 49.1°F9.5°C 35.4°F1.9°C 59% 1.6 mph SE2.6 kmh SE 3.8 mph6.1 kmh 30.33 in1027.1 mb 0.00 in0.0 mm 0.00 in0.0 mm 0.00 in0.0 mm
09:15 PM 48.6°F9.2°C 35.7°F2.1°C 61% 2.2 mph SE3.5 kmh SE 3.8 mph6.1 kmh 30.33 in1027.1 mb 0.00 in0.0 mm 0.00 in0.0 mm 0.00 in0.0 mm
09:30 PM 48.6°F9.2°C 35.3°F1.8°C 60% 1.6 mph SE2.6 kmh SE 3.1 mph5.0 kmh 30.34 in1027.4 mb 0.00 in0.0 mm 0.00 in0.0 mm 0.00 in0.0 mm
09:45 PM 48.0°F8.9°C 35.6°F2.0°C 62% Calm Calm 2.2 mph3.5 kmh 30.34 in1027.4 mb 0.00 in0.0 mm 0.00 in0.0 mm 0.00 in0.0 mm
10:00 PM 48.0°F8.9°C 36.0°F2.2°C 63% 0.7 mph SE1.1 kmh SE 2.2 mph3.5 kmh 30.34 in1027.4 mb 0.00 in0.0 mm 0.00 in0.0 mm 0.00 in0.0 mm
10:15 PM 48.0°F8.9°C 36.4°F2.4°C 64% 1.6 mph SSE2.6 kmh SSE 3.8 mph6.1 kmh 30.34 in1027.4 mb 0.00 in0.0 mm 0.00 in0.0 mm 0.00 in0.0 mm
10:30 PM 47.7°F8.7°C 36.5°F2.5°C 65% 0.7 mph SSE1.1 kmh SSE 3.1 mph5.0 kmh 30.35 in1027.8 mb 0.00 in0.0 mm 0.00 in0.0 mm 0.00 in0.0 mm
10:45 PM 46.9°F8.3°C 36.2°F2.3°C 66% 2.2 mph SE3.5 kmh SE 3.1 mph5.0 kmh 30.35 in1027.8 mb 0.00 in0.0 mm 0.00 in0.0 mm 0.00 in0.0 mm
11:00 PM 47.1°F8.4°C 36.7°F2.6°C 67% 3.1 mph S5.0 kmh S 3.8 mph6.1 kmh 30.35 in1027.8 mb 0.00 in0.0 mm 0.00 in0.0 mm 0.00 in0.0 mm
11:15 PM 46.9°F8.3°C 36.6°F2.6°C 67% Calm Calm 3.8 mph6.1 kmh 30.34 in1027.4 mb 0.00 in0.0 mm 0.00 in0.0 mm 0.00 in0.0 mm
11:30 PM 46.8°F8.2°C 36.8°F2.7°C 68% 1.6 mph SE2.6 kmh SE 3.1 mph5.0 kmh 30.34 in1027.4 mb 0.00 in0.0 mm 0.00 in0.0 mm 0.00 in0.0 mm
11:45 PM 46.4°F8.0°C 36.4°F2.4°C 68% Calm Calm 2.2 mph3.5 kmh 30.35 in1027.8 mb 0.00 in0.0 mm 0.00 in0.0 mm 0.00 in0.0 mm